Sullivan, Pennsylvania
Current Conditions -  °F | °C
As of 7:55 AM on Tuesday 21 Oct 2014 (Local Time) from KN38 Reporting Station
Drizzle Drizzle  
Wind Chill: 45°   Ceiling: 400
Heat Index: 45°   Visibility: 2.5mi
Dew Point: 45°   Wind: 3mph
Humidity: 100%   Direction: 200°SSW
Pressure: 29.84"   Gusts: NA
Location:  41.789°N, 76.9627°W
Report Text: KN38 211155Z AUTO 20003KT 2 1/2SM -DZ BKN004 OVC009 07/07 A2984 RMK AO2
Loading
Personal Weather Stations






























Interactive Weather Map
Tropical Storm Tracking
New forecast layout! Learn more

10-Day Weather Forecast

Advertisements
Track Severe Weather on mobile